الصفحة الرئيسية
METAR-TAF:

METAR-TAF

مطار :

بروناي, بروناي

دائرة عرض: 04-56N, خط طول: 114-56E, ارتفاع: 22 متر

مراقبة الطقس الحالي

تاريخ ووقت الإصدار 21 دقيقة قبل الساعة 13:00UTC
ريح 6 عقدة من الشمال/الشمال الشرقي
درجة الحرارة 27°درجة مئوية
الرطوبة 84%
ضغط 1010 hPa
الرؤية: 9000 متر
غيوم قليلة على ارتفاع 1400 قدم
غيوم مفككة على ارتفاع 30000 قدم

METAR: WBSB 251300Z 02006KT 9000 FEW014 BKN300 27/24 Q1010 NOSIG

زمن: 21:21 (13:21 UTC)

توقعات

تاريخ ووقت الإصدار 2ساعات و 21 دقيقة قبل الساعة 11:00UTC
التوقعات صالحة من25 الساعة 12 UTC إلى 26 الساعة 18 UTC
ريح 8 عقدة من الشمال/الشمال الشرقي
الرؤية: 9000 متر
غيوم قليلة على ارتفاع 1500 قدم
أصبح
من 25 الساعة 18 UTC إلى 25 الساعة 20 UTC
ريح 3 عقدة من الغرب/الجنوب الغربي
غيوم قليلة على ارتفاع 1400 قدم

TAF: WBSB 251100Z 2512/2618 02008KT 9000 FEW015 BECMG 2518/2520 24003KT FEW014

أرصاد الطقس والتوقعات من أكثر من 4000 مطار (تقارير الطقس للمطار METAR والتنبؤ بالطقس بالمطارTAF).

المحطات المتاحة هي النقط الصفراء والحمراء على الخريطة.

حرك المؤشر فوق النقطة لمعرفة اسم المحطة.

ثم انقر لمعرفة أرصاد وتوقعات الطقس.

لتغيير الخارطة: اضغط على الأزرار الخضراء مع رمز الصليب الأسود للتكبير. على الزر الأخضر مع شرطة للتصغير، أو على الأسهم الخضراء للخرائط المجاورة.


METAR-TAF: